sensor_id;sensor_type;location;lat;lon;timestamp;temperature;humidity
35970;DHT22;22448;51.298;6.430;2023-06-22T00:00:12;20.40;99.90
35970;DHT22;22448;51.298;6.430;2023-06-22T00:02:39;20.40;99.90
35970;DHT22;22448;51.298;6.430;2023-06-22T00:05:06;20.40;99.90
35970;DHT22;22448;51.298;6.430;2023-06-22T00:07:33;20.30;99.90
35970;DHT22;22448;51.298;6.430;2023-06-22T00:10:00;20.30;99.90
35970;DHT22;22448;51.298;6.430;2023-06-22T00:12:27;20.30;99.90
35970;DHT22;22448;51.298;6.430;2023-06-22T00:14:55;20.30;99.90
35970;DHT22;22448;51.298;6.430;2023-06-22T00:17:22;20.30;99.90
35970;DHT22;22448;51.298;6.430;2023-06-22T00:19:49;20.20;99.90
35970;DHT22;22448;51.298;6.430;2023-06-22T00:22:20;20.30;99.90
35970;DHT22;22448;51.298;6.430;2023-06-22T00:24:56;20.20;99.90
35970;DHT22;22448;51.298;6.430;2023-06-22T00:27:23;20.20;99.90
35970;DHT22;22448;51.298;6.430;2023-06-22T00:29:51;20.20;99.90
35970;DHT22;22448;51.298;6.430;2023-06-22T00:32:18;20.20;99.90
35970;DHT22;22448;51.298;6.430;2023-06-22T00:34:47;20.20;99.90
35970;DHT22;22448;51.298;6.430;2023-06-22T00:37:14;20.10;99.90
35970;DHT22;22448;51.298;6.430;2023-06-22T00:39:42;20.10;99.90
35970;DHT22;22448;51.298;6.430;2023-06-22T00:42:09;20.10;99.90
35970;DHT22;22448;51.298;6.430;2023-06-22T00:44:36;20.10;99.90
35970;DHT22;22448;51.298;6.430;2023-06-22T00:47:03;20.10;99.90
35970;DHT22;22448;51.298;6.430;2023-06-22T00:49:31;20.10;99.90
35970;DHT22;22448;51.298;6.430;2023-06-22T00:51:58;20.10;99.90
35970;DHT22;22448;51.298;6.430;2023-06-22T00:54:26;20.00;99.90
35970;DHT22;22448;51.298;6.430;2023-06-22T00:56:55;20.00;99.90
35970;DHT22;22448;51.298;6.430;2023-06-22T00:59:24;20.00;99.90
35970;DHT22;22448;51.298;6.430;2023-06-22T01:01:52;20.00;99.90
35970;DHT22;22448;51.298;6.430;2023-06-22T01:04:21;20.00;99.90
35970;DHT22;22448;51.298;6.430;2023-06-22T01:07:00;20.00;99.90
35970;DHT22;22448;51.298;6.430;2023-06-22T01:09:35;20.00;99.90
35970;DHT22;22448;51.298;6.430;2023-06-22T01:12:07;20.00;99.90
35970;DHT22;22448;51.298;6.430;2023-06-22T01:14:37;20.00;99.90
35970;DHT22;22448;51.298;6.430;2023-06-22T01:17:08;20.10;99.90
35970;DHT22;22448;51.298;6.430;2023-06-22T01:19:43;20.10;99.90
35970;DHT22;22448;51.298;6.430;2023-06-22T01:22:14;20.10;99.90
35970;DHT22;22448;51.298;6.430;2023-06-22T01:25:02;20.10;99.90
35970;DHT22;22448;51.298;6.430;2023-06-22T01:30:28;20.10;99.90
35970;DHT22;22448;51.298;6.430;2023-06-22T01:32:57;20.10;99.90
35970;DHT22;22448;51.298;6.430;2023-06-22T01:35:25;20.10;99.90
35970;DHT22;22448;51.298;6.430;2023-06-22T01:37:53;20.10;99.90
35970;DHT22;22448;51.298;6.430;2023-06-22T01:40:21;20.10;99.90
35970;DHT22;22448;51.298;6.430;2023-06-22T01:42:51;20.00;99.90
35970;DHT22;22448;51.298;6.430;2023-06-22T01:45:18;20.00;99.90
35970;DHT22;22448;51.298;6.430;2023-06-22T01:47:46;20.00;99.90
35970;DHT22;22448;51.298;6.430;2023-06-22T01:50:14;19.90;99.90
35970;DHT22;22448;51.298;6.430;2023-06-22T01:52:41;20.00;99.90
35970;DHT22;22448;51.298;6.430;2023-06-22T01:55:08;19.90;99.90
35970;DHT22;22448;51.298;6.430;2023-06-22T01:57:35;19.90;99.90
35970;DHT22;22448;51.298;6.430;2023-06-22T02:00:04;19.90;99.90
35970;DHT22;22448;51.298;6.430;2023-06-22T02:02:53;19.90;99.90
35970;DHT22;22448;51.298;6.430;2023-06-22T02:05:26;19.90;99.90
35970;DHT22;22448;51.298;6.430;2023-06-22T02:08:02;19.90;99.90
35970;DHT22;22448;51.298;6.430;2023-06-22T02:10:34;19.80;99.90
35970;DHT22;22448;51.298;6.430;2023-06-22T02:13:06;19.80;99.90
35970;DHT22;22448;51.298;6.430;2023-06-22T02:15:33;19.90;99.90
35970;DHT22;22448;51.298;6.430;2023-06-22T02:18:01;19.90;99.90
35970;DHT22;22448;51.298;6.430;2023-06-22T02:20:28;19.90;99.90
35970;DHT22;22448;51.298;6.430;2023-06-22T02:22:55;19.90;99.90
35970;DHT22;22448;51.298;6.430;2023-06-22T02:25:23;19.90;99.90
35970;DHT22;22448;51.298;6.430;2023-06-22T02:27:50;19.90;99.90
35970;DHT22;22448;51.298;6.430;2023-06-22T02:30:17;19.90;99.90
35970;DHT22;22448;51.298;6.430;2023-06-22T02:32:44;19.90;99.90
35970;DHT22;22448;51.298;6.430;2023-06-22T02:35:15;19.80;99.90
35970;DHT22;22448;51.298;6.430;2023-06-22T02:37:42;19.80;99.90
35970;DHT22;22448;51.298;6.430;2023-06-22T02:40:09;19.70;99.90
35970;DHT22;22448;51.298;6.430;2023-06-22T02:42:37;19.70;99.90
35970;DHT22;22448;51.298;6.430;2023-06-22T02:45:05;19.70;99.90
35970;DHT22;22448;51.298;6.430;2023-06-22T02:47:32;19.70;99.90
35970;DHT22;22448;51.298;6.430;2023-06-22T02:50:00;19.60;99.90
35970;DHT22;22448;51.298;6.430;2023-06-22T02:52:30;19.60;99.90
35970;DHT22;22448;51.298;6.430;2023-06-22T02:54:58;19.60;99.90
35970;DHT22;22448;51.298;6.430;2023-06-22T02:57:25;19.50;99.90
35970;DHT22;22448;51.298;6.430;2023-06-22T02:59:52;19.50;99.90
35970;DHT22;22448;51.298;6.430;2023-06-22T03:02:19;19.50;99.90
35970;DHT22;22448;51.298;6.430;2023-06-22T03:04:48;19.50;99.90
35970;DHT22;22448;51.298;6.430;2023-06-22T03:07:16;19.50;99.90
35970;DHT22;22448;51.298;6.430;2023-06-22T03:09:44;19.50;99.90
35970;DHT22;22448;51.298;6.430;2023-06-22T03:12:11;19.40;99.90
35970;DHT22;22448;51.298;6.430;2023-06-22T03:14:47;19.50;99.90
35970;DHT22;22448;51.298;6.430;2023-06-22T03:17:14;19.40;99.90
35970;DHT22;22448;51.298;6.430;2023-06-22T03:19:41;19.40;99.90
35970;DHT22;22448;51.298;6.430;2023-06-22T03:22:08;19.40;99.90
35970;DHT22;22448;51.298;6.430;2023-06-22T03:24:39;19.40;99.90
35970;DHT22;22448;51.298;6.430;2023-06-22T03:27:06;19.30;99.90
35970;DHT22;22448;51.298;6.430;2023-06-22T03:29:34;19.30;99.90
35970;DHT22;22448;51.298;6.430;2023-06-22T03:32:01;19.40;99.90
35970;DHT22;22448;51.298;6.430;2023-06-22T03:34:28;19.30;99.90
35970;DHT22;22448;51.298;6.430;2023-06-22T03:36:55;19.30;99.90
35970;DHT22;22448;51.298;6.430;2023-06-22T03:39:22;19.30;99.90
35970;DHT22;22448;51.298;6.430;2023-06-22T03:41:49;19.20;99.90
35970;DHT22;22448;51.298;6.430;2023-06-22T03:44:17;19.20;99.90
35970;DHT22;22448;51.298;6.430;2023-06-22T03:46:44;19.20;99.90
35970;DHT22;22448;51.298;6.430;2023-06-22T03:49:11;19.20;99.90
35970;DHT22;22448;51.298;6.430;2023-06-22T03:51:38;19.20;99.90
35970;DHT22;22448;51.298;6.430;2023-06-22T03:54:05;19.20;99.90
35970;DHT22;22448;51.298;6.430;2023-06-22T03:56:33;19.30;99.90
35970;DHT22;22448;51.298;6.430;2023-06-22T03:59:00;19.30;99.90
35970;DHT22;22448;51.298;6.430;2023-06-22T04:01:27;19.40;99.90
35970;DHT22;22448;51.298;6.430;2023-06-22T04:03:54;19.50;99.90
35970;DHT22;22448;51.298;6.430;2023-06-22T04:06:21;19.50;99.90
35970;DHT22;22448;51.298;6.430;2023-06-22T04:08:49;19.60;99.90
35970;DHT22;22448;51.298;6.430;2023-06-22T04:11:18;19.70;99.90
35970;DHT22;22448;51.298;6.430;2023-06-22T04:13:45;19.70;99.90
35970;DHT22;22448;51.298;6.430;2023-06-22T04:16:12;19.80;99.90
35970;DHT22;22448;51.298;6.430;2023-06-22T04:18:39;19.80;99.90
35970;DHT22;22448;51.298;6.430;2023-06-22T04:21:06;19.80;99.90
35970;DHT22;22448;51.298;6.430;2023-06-22T04:23:33;19.70;99.90
35970;DHT22;22448;51.298;6.430;2023-06-22T04:26:00;19.70;99.90
35970;DHT22;22448;51.298;6.430;2023-06-22T04:28:27;19.70;99.90
35970;DHT22;22448;51.298;6.430;2023-06-22T04:30:54;19.60;99.90
35970;DHT22;22448;51.298;6.430;2023-06-22T04:33:25;19.60;99.90
35970;DHT22;22448;51.298;6.430;2023-06-22T04:35:52;19.60;99.90
35970;DHT22;22448;51.298;6.430;2023-06-22T04:38:19;19.60;99.90
35970;DHT22;22448;51.298;6.430;2023-06-22T04:40:48;19.60;99.90
35970;DHT22;22448;51.298;6.430;2023-06-22T04:43:15;19.60;99.90
35970;DHT22;22448;51.298;6.430;2023-06-22T04:45:42;19.60;99.90
35970;DHT22;22448;51.298;6.430;2023-06-22T04:48:10;19.60;99.90
35970;DHT22;22448;51.298;6.430;2023-06-22T04:50:39;19.60;99.90
35970;DHT22;22448;51.298;6.430;2023-06-22T04:53:06;19.60;99.90
35970;DHT22;22448;51.298;6.430;2023-06-22T04:55:34;19.60;99.90
35970;DHT22;22448;51.298;6.430;2023-06-22T04:58:01;19.60;99.90
35970;DHT22;22448;51.298;6.430;2023-06-22T05:00:31;19.60;99.90
35970;DHT22;22448;51.298;6.430;2023-06-22T05:02:58;19.60;99.90
35970;DHT22;22448;51.298;6.430;2023-06-22T05:05:37;19.60;99.90
35970;DHT22;22448;51.298;6.430;2023-06-22T05:08:04;19.60;99.90
35970;DHT22;22448;51.298;6.430;2023-06-22T05:10:33;19.70;99.90
35970;DHT22;22448;51.298;6.430;2023-06-22T05:13:00;19.70;99.90
35970;DHT22;22448;51.298;6.430;2023-06-22T05:15:28;19.70;99.90
35970;DHT22;22448;51.298;6.430;2023-06-22T05:18:03;19.70;99.90
35970;DHT22;22448;51.298;6.430;2023-06-22T05:20:32;19.70;99.90
35970;DHT22;22448;51.298;6.430;2023-06-22T05:23:02;19.70;99.90
35970;DHT22;22448;51.298;6.430;2023-06-22T05:25:29;19.80;99.90
35970;DHT22;22448;51.298;6.430;2023-06-22T05:27:59;19.80;99.90
35970;DHT22;22448;51.298;6.430;2023-06-22T05:30:27;19.90;99.90
35970;DHT22;22448;51.298;6.430;2023-06-22T05:32:54;19.90;99.90
35970;DHT22;22448;51.298;6.430;2023-06-22T05:35:21;19.90;99.90
35970;DHT22;22448;51.298;6.430;2023-06-22T05:37:48;19.90;99.90
35970;DHT22;22448;51.298;6.430;2023-06-22T05:40:15;19.90;99.90
35970;DHT22;22448;51.298;6.430;2023-06-22T05:42:42;19.90;99.90
35970;DHT22;22448;51.298;6.430;2023-06-22T05:45:10;19.90;99.90
35970;DHT22;22448;51.298;6.430;2023-06-22T05:47:37;19.90;99.90
35970;DHT22;22448;51.298;6.430;2023-06-22T05:50:05;19.90;99.90
35970;DHT22;22448;51.298;6.430;2023-06-22T05:52:34;20.00;99.90
35970;DHT22;22448;51.298;6.430;2023-06-22T05:55:02;20.00;99.90
35970;DHT22;22448;51.298;6.430;2023-06-22T05:57:29;20.00;99.90
35970;DHT22;22448;51.298;6.430;2023-06-22T05:59:56;20.00;99.90
35970;DHT22;22448;51.298;6.430;2023-06-22T06:02:23;20.10;99.90
35970;DHT22;22448;51.298;6.430;2023-06-22T06:04:50;20.10;99.90
35970;DHT22;22448;51.298;6.430;2023-06-22T06:07:19;20.20;99.90
35970;DHT22;22448;51.298;6.430;2023-06-22T06:09:46;20.30;99.90
35970;DHT22;22448;51.298;6.430;2023-06-22T06:12:14;20.40;99.90
35970;DHT22;22448;51.298;6.430;2023-06-22T06:14:41;20.40;99.90
35970;DHT22;22448;51.298;6.430;2023-06-22T06:17:08;20.40;99.90
35970;DHT22;22448;51.298;6.430;2023-06-22T06:19:35;20.40;99.90
35970;DHT22;22448;51.298;6.430;2023-06-22T06:22:03;20.40;99.90
35970;DHT22;22448;51.298;6.430;2023-06-22T06:24:30;20.40;99.90
35970;DHT22;22448;51.298;6.430;2023-06-22T06:26:57;20.40;99.90
35970;DHT22;22448;51.298;6.430;2023-06-22T06:29:24;20.50;99.90
35970;DHT22;22448;51.298;6.430;2023-06-22T06:31:52;20.50;99.90
35970;DHT22;22448;51.298;6.430;2023-06-22T06:34:20;20.60;99.90
35970;DHT22;22448;51.298;6.430;2023-06-22T06:36:47;20.70;99.90
35970;DHT22;22448;51.298;6.430;2023-06-22T06:39:14;20.80;99.90
35970;DHT22;22448;51.298;6.430;2023-06-22T06:41:42;20.80;99.90
35970;DHT22;22448;51.298;6.430;2023-06-22T06:44:14;20.90;99.90
35970;DHT22;22448;51.298;6.430;2023-06-22T06:46:41;20.90;99.90
35970;DHT22;22448;51.298;6.430;2023-06-22T06:49:09;21.00;99.90
35970;DHT22;22448;51.298;6.430;2023-06-22T06:51:36;21.00;99.90
35970;DHT22;22448;51.298;6.430;2023-06-22T06:54:03;21.10;99.90
35970;DHT22;22448;51.298;6.430;2023-06-22T06:56:30;21.10;99.90
35970;DHT22;22448;51.298;6.430;2023-06-22T06:58:57;21.20;99.90
35970;DHT22;22448;51.298;6.430;2023-06-22T07:01:26;21.20;99.90
35970;DHT22;22448;51.298;6.430;2023-06-22T07:03:53;21.20;99.90
35970;DHT22;22448;51.298;6.430;2023-06-22T07:06:20;21.20;99.90
35970;DHT22;22448;51.298;6.430;2023-06-22T07:08:47;21.20;99.90
35970;DHT22;22448;51.298;6.430;2023-06-22T07:11:14;21.10;99.90
35970;DHT22;22448;51.298;6.430;2023-06-22T07:13:41;21.10;99.90
35970;DHT22;22448;51.298;6.430;2023-06-22T07:16:08;21.10;99.90
35970;DHT22;22448;51.298;6.430;2023-06-22T07:18:35;21.00;99.90
35970;DHT22;22448;51.298;6.430;2023-06-22T07:21:02;21.00;99.90
35970;DHT22;22448;51.298;6.430;2023-06-22T07:23:33;21.00;99.90
35970;DHT22;22448;51.298;6.430;2023-06-22T07:26:00;21.00;99.90
35970;DHT22;22448;51.298;6.430;2023-06-22T07:28:32;21.00;99.90
35970;DHT22;22448;51.298;6.430;2023-06-22T07:31:03;21.10;99.90
35970;DHT22;22448;51.298;6.430;2023-06-22T07:33:31;21.00;99.90
35970;DHT22;22448;51.298;6.430;2023-06-22T07:35:58;20.90;99.90
35970;DHT22;22448;51.298;6.430;2023-06-22T07:38:25;20.90;99.90
35970;DHT22;22448;51.298;6.430;2023-06-22T07:40:52;20.80;99.90
35970;DHT22;22448;51.298;6.430;2023-06-22T07:43:20;20.80;99.90
35970;DHT22;22448;51.298;6.430;2023-06-22T07:45:49;20.70;99.90
35970;DHT22;22448;51.298;6.430;2023-06-22T07:48:22;20.70;99.90
35970;DHT22;22448;51.298;6.430;2023-06-22T07:50:49;20.60;99.90
35970;DHT22;22448;51.298;6.430;2023-06-22T07:53:16;20.50;99.90
35970;DHT22;22448;51.298;6.430;2023-06-22T07:55:43;20.50;99.90
35970;DHT22;22448;51.298;6.430;2023-06-22T07:58:12;20.50;99.90
35970;DHT22;22448;51.298;6.430;2023-06-22T08:00:39;20.60;99.90
35970;DHT22;22448;51.298;6.430;2023-06-22T08:03:06;20.70;99.90
35970;DHT22;22448;51.298;6.430;2023-06-22T08:05:34;20.90;99.90
35970;DHT22;22448;51.298;6.430;2023-06-22T08:08:01;21.30;99.90
35970;DHT22;22448;51.298;6.430;2023-06-22T08:10:28;22.90;99.90
35970;DHT22;22448;51.298;6.430;2023-06-22T08:12:55;24.50;99.90
35970;DHT22;22448;51.298;6.430;2023-06-22T08:15:22;25.80;99.90
35970;DHT22;22448;51.298;6.430;2023-06-22T08:17:49;26.80;99.90
35970;DHT22;22448;51.298;6.430;2023-06-22T08:20:17;27.40;99.90
35970;DHT22;22448;51.298;6.430;2023-06-22T08:22:44;27.40;99.90
35970;DHT22;22448;51.298;6.430;2023-06-22T08:25:11;27.20;99.90
35970;DHT22;22448;51.298;6.430;2023-06-22T08:27:40;26.30;99.90
35970;DHT22;22448;51.298;6.430;2023-06-22T08:30:08;26.00;99.90
35970;DHT22;22448;51.298;6.430;2023-06-22T08:32:37;25.80;99.90
35970;DHT22;22448;51.298;6.430;2023-06-22T08:35:05;25.90;99.90
35970;DHT22;22448;51.298;6.430;2023-06-22T08:37:35;25.60;99.90
35970;DHT22;22448;51.298;6.430;2023-06-22T08:40:05;25.00;99.90
35970;DHT22;22448;51.298;6.430;2023-06-22T08:42:35;24.70;99.90
35970;DHT22;22448;51.298;6.430;2023-06-22T08:45:02;24.30;99.90
35970;DHT22;22448;51.298;6.430;2023-06-22T08:47:29;24.00;99.90
35970;DHT22;22448;51.298;6.430;2023-06-22T08:49:56;23.70;99.90
35970;DHT22;22448;51.298;6.430;2023-06-22T08:52:23;23.50;99.90
35970;DHT22;22448;51.298;6.430;2023-06-22T08:54:50;23.40;99.90
35970;DHT22;22448;51.298;6.430;2023-06-22T08:57:18;23.40;99.90
35970;DHT22;22448;51.298;6.430;2023-06-22T08:59:45;23.50;99.90
35970;DHT22;22448;51.298;6.430;2023-06-22T09:02:12;23.70;99.90
35970;DHT22;22448;51.298;6.430;2023-06-22T09:04:39;23.80;99.90
35970;DHT22;22448;51.298;6.430;2023-06-22T09:07:07;23.80;99.90
35970;DHT22;22448;51.298;6.430;2023-06-22T09:09:34;23.80;99.90
35970;DHT22;22448;51.298;6.430;2023-06-22T09:12:01;23.70;99.90
35970;DHT22;22448;51.298;6.430;2023-06-22T09:14:28;23.60;99.90
35970;DHT22;22448;51.298;6.430;2023-06-22T09:16:55;23.60;99.90
35970;DHT22;22448;51.298;6.430;2023-06-22T09:19:22;23.70;99.90
35970;DHT22;22448;51.298;6.430;2023-06-22T09:21:50;23.80;99.90
35970;DHT22;22448;51.298;6.430;2023-06-22T09:24:17;23.80;99.90
35970;DHT22;22448;51.298;6.430;2023-06-22T09:26:44;23.90;99.90
35970;DHT22;22448;51.298;6.430;2023-06-22T09:29:11;24.10;99.90
35970;DHT22;22448;51.298;6.430;2023-06-22T09:31:38;24.30;99.90
35970;DHT22;22448;51.298;6.430;2023-06-22T09:34:06;24.60;99.90
35970;DHT22;22448;51.298;6.430;2023-06-22T09:36:33;25.00;99.90
35970;DHT22;22448;51.298;6.430;2023-06-22T09:39:00;25.30;99.90
35970;DHT22;22448;51.298;6.430;2023-06-22T09:41:32;25.40;99.90
35970;DHT22;22448;51.298;6.430;2023-06-22T09:43:59;25.60;99.90
35970;DHT22;22448;51.298;6.430;2023-06-22T09:46:26;25.80;99.90
35970;DHT22;22448;51.298;6.430;2023-06-22T09:48:54;26.20;99.90
35970;DHT22;22448;51.298;6.430;2023-06-22T09:51:22;26.60;99.90
35970;DHT22;22448;51.298;6.430;2023-06-22T09:53:51;26.80;99.90
35970;DHT22;22448;51.298;6.430;2023-06-22T09:56:19;27.00;99.90
35970;DHT22;22448;51.298;6.430;2023-06-22T09:58:47;26.90;99.90
35970;DHT22;22448;51.298;6.430;2023-06-22T10:01:14;26.90;99.90
35970;DHT22;22448;51.298;6.430;2023-06-22T10:03:41;26.90;99.90
35970;DHT22;22448;51.298;6.430;2023-06-22T10:06:09;27.00;99.90
35970;DHT22;22448;51.298;6.430;2023-06-22T10:08:36;26.80;99.90
35970;DHT22;22448;51.298;6.430;2023-06-22T10:11:06;26.80;99.90
35970;DHT22;22448;51.298;6.430;2023-06-22T10:13:33;26.60;99.90
35970;DHT22;22448;51.298;6.430;2023-06-22T10:16:00;26.60;99.90
35970;DHT22;22448;51.298;6.430;2023-06-22T10:18:27;26.60;99.90
35970;DHT22;22448;51.298;6.430;2023-06-22T10:20:54;26.30;99.90
35970;DHT22;22448;51.298;6.430;2023-06-22T10:23:21;26.10;99.90
35970;DHT22;22448;51.298;6.430;2023-06-22T10:25:48;25.70;99.90
35970;DHT22;22448;51.298;6.430;2023-06-22T10:28:16;25.50;99.90
35970;DHT22;22448;51.298;6.430;2023-06-22T10:30:43;25.30;99.90
35970;DHT22;22448;51.298;6.430;2023-06-22T10:33:11;25.20;99.90
35970;DHT22;22448;51.298;6.430;2023-06-22T10:35:38;24.90;99.90
35970;DHT22;22448;51.298;6.430;2023-06-22T10:38:06;24.70;99.90
35970;DHT22;22448;51.298;6.430;2023-06-22T10:40:33;24.60;99.90
35970;DHT22;22448;51.298;6.430;2023-06-22T10:43:00;24.50;99.90
35970;DHT22;22448;51.298;6.430;2023-06-22T10:45:27;24.40;99.90
35970;DHT22;22448;51.298;6.430;2023-06-22T10:47:55;24.30;99.90
35970;DHT22;22448;51.298;6.430;2023-06-22T10:50:23;24.20;99.90
35970;DHT22;22448;51.298;6.430;2023-06-22T10:52:51;24.20;99.90
35970;DHT22;22448;51.298;6.430;2023-06-22T10:55:18;24.10;99.90
35970;DHT22;22448;51.298;6.430;2023-06-22T10:57:45;24.10;99.90
35970;DHT22;22448;51.298;6.430;2023-06-22T11:00:15;24.00;99.90
35970;DHT22;22448;51.298;6.430;2023-06-22T11:02:43;23.80;99.90
35970;DHT22;22448;51.298;6.430;2023-06-22T11:05:11;23.70;99.90
35970;DHT22;22448;51.298;6.430;2023-06-22T11:07:42;23.60;99.90
35970;DHT22;22448;51.298;6.430;2023-06-22T11:10:10;23.50;99.90
35970;DHT22;22448;51.298;6.430;2023-06-22T11:12:37;23.30;99.90
35970;DHT22;22448;51.298;6.430;2023-06-22T11:15:05;23.20;99.90
35970;DHT22;22448;51.298;6.430;2023-06-22T11:17:32;23.10;99.90
35970;DHT22;22448;51.298;6.430;2023-06-22T11:19:59;23.00;99.90
35970;DHT22;22448;51.298;6.430;2023-06-22T11:22:26;22.90;99.90
35970;DHT22;22448;51.298;6.430;2023-06-22T11:24:53;22.80;99.90
35970;DHT22;22448;51.298;6.430;2023-06-22T11:27:20;22.60;99.90
35970;DHT22;22448;51.298;6.430;2023-06-22T11:29:47;22.60;99.90
35970;DHT22;22448;51.298;6.430;2023-06-22T11:32:14;22.50;99.90
35970;DHT22;22448;51.298;6.430;2023-06-22T11:34:41;22.40;99.90
35970;DHT22;22448;51.298;6.430;2023-06-22T11:37:08;22.30;99.90
35970;DHT22;22448;51.298;6.430;2023-06-22T11:39:35;22.30;99.90
35970;DHT22;22448;51.298;6.430;2023-06-22T11:42:13;22.20;99.90
35970;DHT22;22448;51.298;6.430;2023-06-22T11:44:42;22.10;99.90
35970;DHT22;22448;51.298;6.430;2023-06-22T11:47:09;22.00;99.90
35970;DHT22;22448;51.298;6.430;2023-06-22T11:49:36;21.90;99.90
35970;DHT22;22448;51.298;6.430;2023-06-22T11:52:04;21.80;99.90
35970;DHT22;22448;51.298;6.430;2023-06-22T11:54:31;21.70;99.90
35970;DHT22;22448;51.298;6.430;2023-06-22T11:56:58;21.70;99.90
35970;DHT22;22448;51.298;6.430;2023-06-22T11:59:25;21.70;99.90
35970;DHT22;22448;51.298;6.430;2023-06-22T12:01:52;21.80;99.90
35970;DHT22;22448;51.298;6.430;2023-06-22T12:04:19;21.90;99.90
35970;DHT22;22448;51.298;6.430;2023-06-22T12:06:46;22.10;99.90
35970;DHT22;22448;51.298;6.430;2023-06-22T12:09:13;22.40;99.90
35970;DHT22;22448;51.298;6.430;2023-06-22T12:11:41;22.70;99.90
35970;DHT22;22448;51.298;6.430;2023-06-22T12:14:08;23.00;99.90
35970;DHT22;22448;51.298;6.430;2023-06-22T12:16:35;23.10;99.90
35970;DHT22;22448;51.298;6.430;2023-06-22T12:19:02;23.40;99.90
35970;DHT22;22448;51.298;6.430;2023-06-22T12:21:29;23.50;99.90
35970;DHT22;22448;51.298;6.430;2023-06-22T12:23:56;23.60;99.90
35970;DHT22;22448;51.298;6.430;2023-06-22T12:26:23;23.60;99.90
35970;DHT22;22448;51.298;6.430;2023-06-22T12:28:50;23.70;99.90
35970;DHT22;22448;51.298;6.430;2023-06-22T12:31:17;23.60;99.90
35970;DHT22;22448;51.298;6.430;2023-06-22T12:33:44;23.80;99.90
35970;DHT22;22448;51.298;6.430;2023-06-22T12:36:11;23.90;99.90
35970;DHT22;22448;51.298;6.430;2023-06-22T12:38:38;24.10;99.90
35970;DHT22;22448;51.298;6.430;2023-06-22T12:41:06;24.30;99.90
35970;DHT22;22448;51.298;6.430;2023-06-22T12:43:33;24.20;99.90
35970;DHT22;22448;51.298;6.430;2023-06-22T12:46:00;24.10;99.90
35970;DHT22;22448;51.298;6.430;2023-06-22T12:48:27;24.00;99.90
35970;DHT22;22448;51.298;6.430;2023-06-22T12:50:54;24.00;99.90
35970;DHT22;22448;51.298;6.430;2023-06-22T12:53:21;24.00;99.90
35970;DHT22;22448;51.298;6.430;2023-06-22T12:55:50;23.80;99.90
35970;DHT22;22448;51.298;6.430;2023-06-22T12:58:17;23.70;99.90
35970;DHT22;22448;51.298;6.430;2023-06-22T13:00:44;23.60;99.90
35970;DHT22;22448;51.298;6.430;2023-06-22T13:03:11;23.50;99.90
35970;DHT22;22448;51.298;6.430;2023-06-22T13:05:38;23.50;99.90
35970;DHT22;22448;51.298;6.430;2023-06-22T13:08:06;23.40;99.90
35970;DHT22;22448;51.298;6.430;2023-06-22T13:10:33;23.30;99.90
35970;DHT22;22448;51.298;6.430;2023-06-22T13:13:00;23.10;99.90
35970;DHT22;22448;51.298;6.430;2023-06-22T13:15:28;23.00;99.90
35970;DHT22;22448;51.298;6.430;2023-06-22T13:17:56;22.90;99.90
35970;DHT22;22448;51.298;6.430;2023-06-22T13:20:23;22.80;99.90
35970;DHT22;22448;51.298;6.430;2023-06-22T13:22:50;22.70;99.90
35970;DHT22;22448;51.298;6.430;2023-06-22T13:25:17;22.70;99.90
35970;DHT22;22448;51.298;6.430;2023-06-22T13:27:46;22.80;99.90
35970;DHT22;22448;51.298;6.430;2023-06-22T13:30:14;22.70;99.90
35970;DHT22;22448;51.298;6.430;2023-06-22T13:32:41;22.80;99.90
35970;DHT22;22448;51.298;6.430;2023-06-22T13:35:10;22.80;99.90
35970;DHT22;22448;51.298;6.430;2023-06-22T13:37:38;22.80;99.90
35970;DHT22;22448;51.298;6.430;2023-06-22T13:40:08;22.80;99.90
35970;DHT22;22448;51.298;6.430;2023-06-22T13:42:36;22.70;99.90
35970;DHT22;22448;51.298;6.430;2023-06-22T13:45:03;22.60;99.90
35970;DHT22;22448;51.298;6.430;2023-06-22T13:47:31;22.70;99.90
35970;DHT22;22448;51.298;6.430;2023-06-22T13:49:58;22.70;99.90
35970;DHT22;22448;51.298;6.430;2023-06-22T13:52:26;22.70;99.90
35970;DHT22;22448;51.298;6.430;2023-06-22T13:54:52;22.60;99.90
35970;DHT22;22448;51.298;6.430;2023-06-22T13:57:20;22.60;99.90
35970;DHT22;22448;51.298;6.430;2023-06-22T13:59:47;22.50;99.90
35970;DHT22;22448;51.298;6.430;2023-06-22T14:02:14;22.50;99.90
35970;DHT22;22448;51.298;6.430;2023-06-22T14:04:40;22.60;99.90
35970;DHT22;22448;51.298;6.430;2023-06-22T14:07:07;22.70;99.90
35970;DHT22;22448;51.298;6.430;2023-06-22T14:09:34;22.70;99.90
35970;DHT22;22448;51.298;6.430;2023-06-22T14:12:05;22.70;99.90
35970;DHT22;22448;51.298;6.430;2023-06-22T14:14:33;22.70;99.90
35970;DHT22;22448;51.298;6.430;2023-06-22T14:17:00;22.60;99.90
35970;DHT22;22448;51.298;6.430;2023-06-22T14:19:27;22.60;99.90
35970;DHT22;22448;51.298;6.430;2023-06-22T14:21:54;22.60;99.90
35970;DHT22;22448;51.298;6.430;2023-06-22T14:24:22;22.50;99.90
35970;DHT22;22448;51.298;6.430;2023-06-22T14:26:52;22.40;99.90
35970;DHT22;22448;51.298;6.430;2023-06-22T14:29:19;22.30;99.90
35970;DHT22;22448;51.298;6.430;2023-06-22T14:31:46;22.20;99.90
35970;DHT22;22448;51.298;6.430;2023-06-22T14:34:14;22.20;99.90
35970;DHT22;22448;51.298;6.430;2023-06-22T14:36:42;22.20;99.90
35970;DHT22;22448;51.298;6.430;2023-06-22T14:39:09;22.10;99.90
35970;DHT22;22448;51.298;6.430;2023-06-22T14:41:36;22.10;99.90
35970;DHT22;22448;51.298;6.430;2023-06-22T14:44:03;22.20;99.90
35970;DHT22;22448;51.298;6.430;2023-06-22T14:46:30;22.10;99.90
35970;DHT22;22448;51.298;6.430;2023-06-22T14:48:58;22.00;99.90
35970;DHT22;22448;51.298;6.430;2023-06-22T14:51:25;21.90;99.90
35970;DHT22;22448;51.298;6.430;2023-06-22T14:53:51;21.90;99.90
35970;DHT22;22448;51.298;6.430;2023-06-22T14:56:19;21.80;99.90
35970;DHT22;22448;51.298;6.430;2023-06-22T14:58:46;21.80;99.90
35970;DHT22;22448;51.298;6.430;2023-06-22T15:01:15;21.80;99.90
35970;DHT22;22448;51.298;6.430;2023-06-22T15:03:43;21.70;99.90
35970;DHT22;22448;51.298;6.430;2023-06-22T15:06:10;21.70;99.90
35970;DHT22;22448;51.298;6.430;2023-06-22T15:08:38;21.60;99.90
35970;DHT22;22448;51.298;6.430;2023-06-22T15:11:06;21.60;99.90
35970;DHT22;22448;51.298;6.430;2023-06-22T15:13:34;21.60;99.90
35970;DHT22;22448;51.298;6.430;2023-06-22T15:16:02;21.60;99.90
35970;DHT22;22448;51.298;6.430;2023-06-22T15:18:32;21.50;99.90
35970;DHT22;22448;51.298;6.430;2023-06-22T15:21:04;21.40;99.90
35970;DHT22;22448;51.298;6.430;2023-06-22T15:23:32;21.40;99.90
35970;DHT22;22448;51.298;6.430;2023-06-22T15:26:02;21.40;99.90
35970;DHT22;22448;51.298;6.430;2023-06-22T15:28:31;21.30;99.90
35970;DHT22;22448;51.298;6.430;2023-06-22T15:31:00;21.20;99.90
35970;DHT22;22448;51.298;6.430;2023-06-22T15:33:28;21.20;99.90
35970;DHT22;22448;51.298;6.430;2023-06-22T15:35:55;21.00;99.90